Date,TemperatureHighF,TemperatureAvgF,TemperatureLowF,DewpointHighF,DewpointAvgF,DewpointLowF,HumidityHigh,HumidityAvg,HumidityLow,PressureMaxIn,PressureMinIn,WindSpeedMaxMPH,WindSpeedAvgMPH,GustSpeedMaxMPH,PrecipitationSumIn
2013-5-1,84.2,68.5,54.3,63.5,56.8,52.1,96,69,41,29.92,29.92,12,3,14,0.00
2013-5-2,78.4,66.7,53.6,58.4,54.3,49.2,90,66,48,29.92,29.92,12,3,13,0.00
2013-5-3,79.9,66.8,53.6,56.7,48.1,31.9,92,57,18,29.92,29.92,17,5,18,0.00
2013-5-4,73.4,63.6,54.9,50.2,45.1,41.0,67,52,41,29.92,29.92,14,5,20,0.00
2013-5-5,76.3,63.7,51.8,46.2,42.3,33.4,75,48,31,29.92,29.92,12,4,14,0.00
2013-5-6,70.7,61.5,56.5,59.6,51.7,36.3,99,72,39,29.92,29.92,9,2,9,0.11
2013-5-7,74.1,62.8,54.5,62.5,57.6,53.3,98,84,60,29.92,29.92,7,2,9,0.08
2013-5-8,76.5,63.9,53.8,59.3,55.6,53.0,99,77,46,29.92,29.92,9,2,9,0.00
2013-5-9,83.5,66.1,49.6,62.4,55.0,49.4,99,72,33,29.92,29.92,9,2,10,0.01
2013-5-10,76.1,65.1,59.5,64.8,61.2,57.1,99,88,66,29.92,29.92,21,4,24,0.85
2013-5-11,62.1,55.3,46.2,61.5,52.0,40.9,99,89,74,29.92,29.92,12,4,14,0.04
2013-5-12,55.4,46.2,34.5,42.4,34.1,29.5,99,66,39,29.92,29.92,19,5,21,0.00
2013-5-13,59.9,46.8,35.1,40.7,32.8,26.4,99,63,30,29.92,29.92,11,2,12,0.00
2013-5-14,77.7,67.4,36.7,57.2,48.2,32.9,89,52,34,30.19,29.92,14,5,14,0.00
2013-5-15,89.2,77.3,66.6,62.3,59.1,56.0,76,55,36,30.19,30.19,21,8,23,0.06
2013-5-16,78.8,69.8,62.8,67.0,62.6,55.8,98,79,52,30.19,30.19,10,2,14,0.15
2013-5-17,82.8,69.7,59.5,69.5,62.6,56.9,99,81,43,30.19,30.19,8,2,10,0.00
2013-5-18,82.9,69.8,59.7,67.7,61.9,57.5,97,77,56,30.19,30.19,9,2,9,0.01
2013-5-19,83.3,71.7,61.2,69.5,65.0,59.9,98,80,57,30.19,30.19,8,2,11,0.00
2013-5-20,88.5,75.2,63.0,74.4,67.8,62.1,99,80,50,30.19,30.19,12,3,14,0.00
2013-5-21,89.1,77.1,67.3,71.9,66.9,62.4,99,73,42,30.19,30.19,18,4,21,0.12
2013-5-22,81.3,73.9,65.1,66.7,63.3,60.8,96,70,52,30.19,30.19,16,5,20,0.19
2013-5-23,76.3,66.1,50.0,65.1,60.2,45.7,99,83,50,30.19,30.19,16,6,19,0.02
2013-5-24,60.4,51.2,42.6,45.8,40.0,37.4,86,68,44,30.19,30.19,14,5,16,0.00
2013-5-25,66.6,53.2,34.7,46.8,40.9,33.7,99,66,40,30.19,30.19,11,2,11,0.00
2013-5-26,73.4,54.8,38.1,49.5,37.7,28.7,99,60,20,30.19,30.19,7,1,8,0.00
2013-5-27,72.0,59.1,46.4,53.9,47.3,39.1,88,66,44,30.19,30.19,16,4,17,0.06
2013-5-28,86.4,75.3,61.9,65.4,60.8,54.1,86,62,43,30.19,30.19,19,6,21,0.00
2013-5-29,90.3,79.2,70.3,63.7,60.7,56.5,71,54,34,30.19,30.19,16,5,19,0.00
2013-5-30,90.9,78.2,63.0,67.8,63.6,60.9,98,64,40,30.19,30.19,13,3,14,0.00
2013-5-31,90.0,75.8,63.5,71.0,64.3,60.1,99,70,43,30.19,30.19,16,4,21,0.39